sensor_id;sensor_type;location;lat;lon;timestamp;temperature;humidity
15152;DHT22;7676;50.900;6.234;2022-11-20T00:04:15;5.20;99.90
15152;DHT22;7676;50.900;6.234;2022-11-20T00:09:17;5.40;99.90
15152;DHT22;7676;50.900;6.234;2022-11-20T00:14:20;5.60;99.90
15152;DHT22;7676;50.900;6.234;2022-11-20T00:19:22;5.70;99.90
15152;DHT22;7676;50.900;6.234;2022-11-20T00:24:25;5.70;99.90
15152;DHT22;7676;50.900;6.234;2022-11-20T00:29:27;5.50;99.90
15152;DHT22;7676;50.900;6.234;2022-11-20T00:34:30;5.30;99.90
15152;DHT22;7676;50.900;6.234;2022-11-20T00:39:32;5.30;99.90
15152;DHT22;7676;50.900;6.234;2022-11-20T00:44:34;6.50;99.90
15152;DHT22;7676;50.900;6.234;2022-11-20T00:49:37;5.60;99.90
15152;DHT22;7676;50.900;6.234;2022-11-20T00:54:39;5.20;99.90
15152;DHT22;7676;50.900;6.234;2022-11-20T00:59:41;5.20;99.90
15152;DHT22;7676;50.900;6.234;2022-11-20T01:04:44;5.40;99.90
15152;DHT22;7676;50.900;6.234;2022-11-20T01:09:46;5.90;99.90
15152;DHT22;7676;50.900;6.234;2022-11-20T01:14:49;5.70;99.90
15152;DHT22;7676;50.900;6.234;2022-11-20T01:19:51;5.70;99.90
15152;DHT22;7676;50.900;6.234;2022-11-20T01:24:53;6.10;99.90
15152;DHT22;7676;50.900;6.234;2022-11-20T01:29:55;6.20;99.90
15152;DHT22;7676;50.900;6.234;2022-11-20T01:35:02;6.30;99.90
15152;DHT22;7676;50.900;6.234;2022-11-20T01:40:05;4.80;99.90
15152;DHT22;7676;50.900;6.234;2022-11-20T01:50:48;6.20;99.90
15152;DHT22;7676;50.900;6.234;2022-11-20T01:55:55;5.90;99.90
15152;DHT22;7676;50.900;6.234;2022-11-20T02:00:59;8.40;99.90
15152;DHT22;7676;50.900;6.234;2022-11-20T02:06:24;6.00;99.90
15152;DHT22;7676;50.900;6.234;2022-11-20T02:11:30;8.00;99.90
15152;DHT22;7676;50.900;6.234;2022-11-20T02:16:43;6.60;99.90
15152;DHT22;7676;50.900;6.234;2022-11-20T02:21:55;6.80;99.90
15152;DHT22;7676;50.900;6.234;2022-11-20T02:27:09;7.00;99.90
15152;DHT22;7676;50.900;6.234;2022-11-20T02:32:23;7.10;99.90
15152;DHT22;7676;50.900;6.234;2022-11-20T02:37:32;7.10;99.90
15152;DHT22;7676;50.900;6.234;2022-11-20T02:42:35;6.90;99.90
15152;DHT22;7676;50.900;6.234;2022-11-20T02:47:38;7.00;99.90
15152;DHT22;7676;50.900;6.234;2022-11-20T02:52:41;6.90;99.90
15152;DHT22;7676;50.900;6.234;2022-11-20T02:57:43;6.60;99.90
15152;DHT22;7676;50.900;6.234;2022-11-20T03:02:46;6.40;99.90
15152;DHT22;7676;50.900;6.234;2022-11-20T03:07:49;6.50;99.90
15152;DHT22;7676;50.900;6.234;2022-11-20T03:12:55;6.60;99.90
15152;DHT22;7676;50.900;6.234;2022-11-20T03:17:57;6.60;99.90
15152;DHT22;7676;50.900;6.234;2022-11-20T03:23:00;6.90;99.90
15152;DHT22;7676;50.900;6.234;2022-11-20T03:28:02;6.60;99.90
15152;DHT22;7676;50.900;6.234;2022-11-20T03:33:05;6.80;99.90
15152;DHT22;7676;50.900;6.234;2022-11-20T03:38:07;7.10;99.90
15152;DHT22;7676;50.900;6.234;2022-11-20T03:43:10;6.90;99.90
15152;DHT22;7676;50.900;6.234;2022-11-20T03:48:12;6.90;99.90
15152;DHT22;7676;50.900;6.234;2022-11-20T03:53:15;6.70;99.90
15152;DHT22;7676;50.900;6.234;2022-11-20T03:58:18;6.50;99.90
15152;DHT22;7676;50.900;6.234;2022-11-20T04:03:20;6.40;99.90
15152;DHT22;7676;50.900;6.234;2022-11-20T04:08:23;6.20;99.90
15152;DHT22;7676;50.900;6.234;2022-11-20T04:13:25;6.30;99.90
15152;DHT22;7676;50.900;6.234;2022-11-20T04:18:27;6.30;99.90
15152;DHT22;7676;50.900;6.234;2022-11-20T04:23:30;6.30;99.90
15152;DHT22;7676;50.900;6.234;2022-11-20T04:28:32;6.20;99.90
15152;DHT22;7676;50.900;6.234;2022-11-20T04:33:36;6.10;99.90
15152;DHT22;7676;50.900;6.234;2022-11-20T04:38:39;6.30;99.90
15152;DHT22;7676;50.900;6.234;2022-11-20T04:43:46;6.20;99.90
15152;DHT22;7676;50.900;6.234;2022-11-20T04:48:49;6.30;99.90
15152;DHT22;7676;50.900;6.234;2022-11-20T04:53:51;5.70;99.90
15152;DHT22;7676;50.900;6.234;2022-11-20T04:58:54;5.90;99.90
15152;DHT22;7676;50.900;6.234;2022-11-20T05:03:56;5.30;99.90
15152;DHT22;7676;50.900;6.234;2022-11-20T05:08:59;6.30;99.90
15152;DHT22;7676;50.900;6.234;2022-11-20T05:14:01;6.40;99.90
15152;DHT22;7676;50.900;6.234;2022-11-20T05:19:04;6.60;99.90
15152;DHT22;7676;50.900;6.234;2022-11-20T05:29:10;6.80;99.90
15152;DHT22;7676;50.900;6.234;2022-11-20T05:34:14;6.80;99.90
15152;DHT22;7676;50.900;6.234;2022-11-20T05:39:16;6.80;99.90
15152;DHT22;7676;50.900;6.234;2022-11-20T05:44:18;6.90;99.90
15152;DHT22;7676;50.900;6.234;2022-11-20T05:49:21;7.00;99.90
15152;DHT22;7676;50.900;6.234;2022-11-20T05:54:23;7.10;99.90
15152;DHT22;7676;50.900;6.234;2022-11-20T05:59:26;7.10;99.90
15152;DHT22;7676;50.900;6.234;2022-11-20T06:04:28;7.20;99.90
15152;DHT22;7676;50.900;6.234;2022-11-20T06:09:30;7.30;99.90
15152;DHT22;7676;50.900;6.234;2022-11-20T06:14:33;7.20;99.90
15152;DHT22;7676;50.900;6.234;2022-11-20T06:19:35;7.20;99.90
15152;DHT22;7676;50.900;6.234;2022-11-20T06:24:38;7.30;99.90
15152;DHT22;7676;50.900;6.234;2022-11-20T06:29:40;7.30;99.90
15152;DHT22;7676;50.900;6.234;2022-11-20T06:34:42;7.20;99.90
15152;DHT22;7676;50.900;6.234;2022-11-20T06:39:45;7.20;99.90
15152;DHT22;7676;50.900;6.234;2022-11-20T06:44:48;7.20;99.90
15152;DHT22;7676;50.900;6.234;2022-11-20T06:49:50;7.20;99.90
15152;DHT22;7676;50.900;6.234;2022-11-20T06:54:53;7.00;99.90
15152;DHT22;7676;50.900;6.234;2022-11-20T06:59:55;7.00;99.90
15152;DHT22;7676;50.900;6.234;2022-11-20T07:04:58;6.80;99.90
15152;DHT22;7676;50.900;6.234;2022-11-20T07:10:00;6.80;99.90
15152;DHT22;7676;50.900;6.234;2022-11-20T07:15:03;6.90;99.90
15152;DHT22;7676;50.900;6.234;2022-11-20T07:20:06;7.00;99.90
15152;DHT22;7676;50.900;6.234;2022-11-20T07:25:10;6.90;99.90
15152;DHT22;7676;50.900;6.234;2022-11-20T07:30:14;6.90;99.90
15152;DHT22;7676;50.900;6.234;2022-11-20T07:35:16;6.90;99.90
15152;DHT22;7676;50.900;6.234;2022-11-20T07:40:19;6.80;99.90
15152;DHT22;7676;50.900;6.234;2022-11-20T07:45:23;6.80;99.90
15152;DHT22;7676;50.900;6.234;2022-11-20T07:50:26;6.90;99.90
15152;DHT22;7676;50.900;6.234;2022-11-20T07:55:28;6.80;99.90
15152;DHT22;7676;50.900;6.234;2022-11-20T08:00:30;7.70;99.90
15152;DHT22;7676;50.900;6.234;2022-11-20T08:05:33;6.80;99.90
15152;DHT22;7676;50.900;6.234;2022-11-20T08:10:35;6.80;99.90
15152;DHT22;7676;50.900;6.234;2022-11-20T08:15:39;6.80;99.90
15152;DHT22;7676;50.900;6.234;2022-11-20T08:20:41;6.70;99.90
15152;DHT22;7676;50.900;6.234;2022-11-20T08:25:49;6.60;99.90
15152;DHT22;7676;50.900;6.234;2022-11-20T08:30:58;6.80;99.90
15152;DHT22;7676;50.900;6.234;2022-11-20T08:36:02;6.90;99.90
15152;DHT22;7676;50.900;6.234;2022-11-20T08:41:05;7.00;99.90
15152;DHT22;7676;50.900;6.234;2022-11-20T08:46:35;7.10;99.90
15152;DHT22;7676;50.900;6.234;2022-11-20T08:51:39;7.00;99.90
15152;DHT22;7676;50.900;6.234;2022-11-20T08:56:41;6.90;99.90
15152;DHT22;7676;50.900;6.234;2022-11-20T09:01:44;7.10;99.90
15152;DHT22;7676;50.900;6.234;2022-11-20T09:06:46;7.20;99.90
15152;DHT22;7676;50.900;6.234;2022-11-20T09:11:53;7.20;99.90
15152;DHT22;7676;50.900;6.234;2022-11-20T09:16:56;7.40;99.90
15152;DHT22;7676;50.900;6.234;2022-11-20T09:21:59;7.40;99.90
15152;DHT22;7676;50.900;6.234;2022-11-20T09:27:03;7.40;99.90
15152;DHT22;7676;50.900;6.234;2022-11-20T09:32:06;7.50;99.90
15152;DHT22;7676;50.900;6.234;2022-11-20T09:37:08;7.40;99.90
15152;DHT22;7676;50.900;6.234;2022-11-20T09:58:07;7.60;99.90
15152;DHT22;7676;50.900;6.234;2022-11-20T10:03:19;7.70;99.90
15152;DHT22;7676;50.900;6.234;2022-11-20T10:08:28;7.80;99.90
15152;DHT22;7676;50.900;6.234;2022-11-20T10:25:05;7.90;99.90
15152;DHT22;7676;50.900;6.234;2022-11-20T10:30:12;8.00;99.90
15152;DHT22;7676;50.900;6.234;2022-11-20T10:35:31;8.10;99.90
15152;DHT22;7676;50.900;6.234;2022-11-20T10:40:39;8.20;99.90
15152;DHT22;7676;50.900;6.234;2022-11-20T10:46:05;8.00;99.90
15152;DHT22;7676;50.900;6.234;2022-11-20T10:51:35;8.00;99.90
15152;DHT22;7676;50.900;6.234;2022-11-20T10:56:42;7.70;99.90
15152;DHT22;7676;50.900;6.234;2022-11-20T11:01:51;7.40;99.90
15152;DHT22;7676;50.900;6.234;2022-11-20T11:06:58;7.50;99.90
15152;DHT22;7676;50.900;6.234;2022-11-20T11:12:10;7.40;99.90
15152;DHT22;7676;50.900;6.234;2022-11-20T11:17:28;6.80;99.90
15152;DHT22;7676;50.900;6.234;2022-11-20T11:22:33;6.60;99.90
15152;DHT22;7676;50.900;6.234;2022-11-20T11:27:48;6.50;99.90
15152;DHT22;7676;50.900;6.234;2022-11-20T11:33:02;6.60;99.90
15152;DHT22;7676;50.900;6.234;2022-11-20T11:38:10;6.50;99.90
15152;DHT22;7676;50.900;6.234;2022-11-20T11:43:22;6.70;99.90
15152;DHT22;7676;50.900;6.234;2022-11-20T11:49:28;6.70;99.90
15152;DHT22;7676;50.900;6.234;2022-11-20T11:54:28;6.30;99.90
15152;DHT22;7676;50.900;6.234;2022-11-20T12:15:44;6.50;99.90
15152;DHT22;7676;50.900;6.234;2022-11-20T12:26:06;6.60;99.90
15152;DHT22;7676;50.900;6.234;2022-11-20T12:31:30;6.60;99.90
15152;DHT22;7676;50.900;6.234;2022-11-20T12:36:44;6.50;99.90
15152;DHT22;7676;50.900;6.234;2022-11-20T12:47:54;6.50;99.90
15152;DHT22;7676;50.900;6.234;2022-11-20T12:53:05;7.00;99.90
15152;DHT22;7676;50.900;6.234;2022-11-20T12:58:31;7.00;99.90
15152;DHT22;7676;50.900;6.234;2022-11-20T13:04:07;7.40;99.90
15152;DHT22;7676;50.900;6.234;2022-11-20T13:09:14;7.20;99.90
15152;DHT22;7676;50.900;6.234;2022-11-20T13:19:39;7.20;99.90
15152;DHT22;7676;50.900;6.234;2022-11-20T13:24:50;7.30;99.90
15152;DHT22;7676;50.900;6.234;2022-11-20T13:30:14;7.60;99.90
15152;DHT22;7676;50.900;6.234;2022-11-20T13:40:36;7.90;99.90
15152;DHT22;7676;50.900;6.234;2022-11-20T13:45:39;7.80;99.90
15152;DHT22;7676;50.900;6.234;2022-11-20T13:51:00;8.00;99.90
15152;DHT22;7676;50.900;6.234;2022-11-20T13:56:18;8.30;99.90
15152;DHT22;7676;50.900;6.234;2022-11-20T14:01:28;8.20;99.90
15152;DHT22;7676;50.900;6.234;2022-11-20T14:06:41;8.40;99.90
15152;DHT22;7676;50.900;6.234;2022-11-20T14:11:47;8.40;99.90
15152;DHT22;7676;50.900;6.234;2022-11-20T14:16:52;8.30;99.90
15152;DHT22;7676;50.900;6.234;2022-11-20T14:22:15;8.30;99.90
15152;DHT22;7676;50.900;6.234;2022-11-20T14:27:20;8.30;99.90
15152;DHT22;7676;50.900;6.234;2022-11-20T14:32:27;8.40;99.90
15152;DHT22;7676;50.900;6.234;2022-11-20T14:37:35;8.40;99.90
15152;DHT22;7676;50.900;6.234;2022-11-20T14:42:43;8.40;99.90
15152;DHT22;7676;50.900;6.234;2022-11-20T14:47:46;8.30;99.90
15152;DHT22;7676;50.900;6.234;2022-11-20T14:52:59;8.30;99.90
15152;DHT22;7676;50.900;6.234;2022-11-20T14:58:24;10.30;99.90
15152;DHT22;7676;50.900;6.234;2022-11-20T15:08:36;8.50;99.90
15152;DHT22;7676;50.900;6.234;2022-11-20T15:13:39;8.60;99.90
15152;DHT22;7676;50.900;6.234;2022-11-20T15:18:42;8.50;99.90
15152;DHT22;7676;50.900;6.234;2022-11-20T15:23:45;8.60;99.90
15152;DHT22;7676;50.900;6.234;2022-11-20T15:28:48;8.40;99.90
15152;DHT22;7676;50.900;6.234;2022-11-20T15:33:52;8.60;99.90
15152;DHT22;7676;50.900;6.234;2022-11-20T15:38:54;8.60;99.90
15152;DHT22;7676;50.900;6.234;2022-11-20T15:43:56;8.70;99.90
15152;DHT22;7676;50.900;6.234;2022-11-20T15:48:59;8.70;99.90
15152;DHT22;7676;50.900;6.234;2022-11-20T15:54:14;8.60;99.90
15152;DHT22;7676;50.900;6.234;2022-11-20T15:59:18;8.60;99.90
15152;DHT22;7676;50.900;6.234;2022-11-20T16:04:20;8.50;99.90
15152;DHT22;7676;50.900;6.234;2022-11-20T16:09:23;8.50;99.90
15152;DHT22;7676;50.900;6.234;2022-11-20T16:14:26;8.70;99.90
15152;DHT22;7676;50.900;6.234;2022-11-20T16:20:01;8.60;99.90
15152;DHT22;7676;50.900;6.234;2022-11-20T16:25:03;8.80;99.90
15152;DHT22;7676;50.900;6.234;2022-11-20T16:30:07;8.40;99.90
15152;DHT22;7676;50.900;6.234;2022-11-20T16:35:09;8.50;99.90
15152;DHT22;7676;50.900;6.234;2022-11-20T16:40:12;8.40;99.90
15152;DHT22;7676;50.900;6.234;2022-11-20T16:45:14;8.40;99.90
15152;DHT22;7676;50.900;6.234;2022-11-20T16:50:26;8.50;99.90
15152;DHT22;7676;50.900;6.234;2022-11-20T16:55:28;8.30;99.90
15152;DHT22;7676;50.900;6.234;2022-11-20T17:00:31;8.10;99.90
15152;DHT22;7676;50.900;6.234;2022-11-20T17:05:34;8.20;99.90
15152;DHT22;7676;50.900;6.234;2022-11-20T17:10:36;8.20;99.90
15152;DHT22;7676;50.900;6.234;2022-11-20T17:15:39;8.10;99.90
15152;DHT22;7676;50.900;6.234;2022-11-20T17:20:41;8.30;99.90
15152;DHT22;7676;50.900;6.234;2022-11-20T17:25:43;8.30;99.90
15152;DHT22;7676;50.900;6.234;2022-11-20T17:30:46;8.20;99.90
15152;DHT22;7676;50.900;6.234;2022-11-20T17:35:49;8.30;99.90
15152;DHT22;7676;50.900;6.234;2022-11-20T17:40:51;8.40;99.90
15152;DHT22;7676;50.900;6.234;2022-11-20T17:45:54;8.60;99.90
15152;DHT22;7676;50.900;6.234;2022-11-20T17:51:02;8.60;99.90
15152;DHT22;7676;50.900;6.234;2022-11-20T17:56:05;8.60;99.90
15152;DHT22;7676;50.900;6.234;2022-11-20T18:01:26;8.60;99.90
15152;DHT22;7676;50.900;6.234;2022-11-20T18:06:29;8.60;99.90
15152;DHT22;7676;50.900;6.234;2022-11-20T18:11:34;8.60;99.90
15152;DHT22;7676;50.900;6.234;2022-11-20T18:16:40;8.60;99.90
15152;DHT22;7676;50.900;6.234;2022-11-20T18:21:45;8.50;99.90
15152;DHT22;7676;50.900;6.234;2022-11-20T18:26:47;8.60;99.90
15152;DHT22;7676;50.900;6.234;2022-11-20T18:31:50;8.70;99.90
15152;DHT22;7676;50.900;6.234;2022-11-20T18:36:52;8.70;99.90
15152;DHT22;7676;50.900;6.234;2022-11-20T18:41:55;8.60;99.90
15152;DHT22;7676;50.900;6.234;2022-11-20T18:47:22;8.60;99.90
15152;DHT22;7676;50.900;6.234;2022-11-20T18:52:30;8.60;99.90
15152;DHT22;7676;50.900;6.234;2022-11-20T18:57:35;8.60;99.90
15152;DHT22;7676;50.900;6.234;2022-11-20T19:02:38;8.60;99.90
15152;DHT22;7676;50.900;6.234;2022-11-20T19:07:44;8.60;99.90
15152;DHT22;7676;50.900;6.234;2022-11-20T19:12:46;8.60;99.90
15152;DHT22;7676;50.900;6.234;2022-11-20T19:17:49;8.60;99.90
15152;DHT22;7676;50.900;6.234;2022-11-20T19:22:53;8.60;99.90
15152;DHT22;7676;50.900;6.234;2022-11-20T19:27:55;8.60;99.90
15152;DHT22;7676;50.900;6.234;2022-11-20T19:32:57;8.60;99.90
15152;DHT22;7676;50.900;6.234;2022-11-20T19:38:00;8.70;99.90
15152;DHT22;7676;50.900;6.234;2022-11-20T19:43:07;8.60;99.90
15152;DHT22;7676;50.900;6.234;2022-11-20T19:48:09;8.70;99.90
15152;DHT22;7676;50.900;6.234;2022-11-20T19:53:11;8.40;99.90
15152;DHT22;7676;50.900;6.234;2022-11-20T19:58:14;8.60;99.90
15152;DHT22;7676;50.900;6.234;2022-11-20T20:03:17;8.80;99.90
15152;DHT22;7676;50.900;6.234;2022-11-20T20:08:20;8.50;99.90
15152;DHT22;7676;50.900;6.234;2022-11-20T20:13:22;8.50;99.90
15152;DHT22;7676;50.900;6.234;2022-11-20T20:18:25;8.50;99.90
15152;DHT22;7676;50.900;6.234;2022-11-20T20:23:27;8.30;99.90
15152;DHT22;7676;50.900;6.234;2022-11-20T20:33:36;8.20;99.90
15152;DHT22;7676;50.900;6.234;2022-11-20T20:38:38;8.10;99.90
15152;DHT22;7676;50.900;6.234;2022-11-20T20:43:43;8.10;99.90
15152;DHT22;7676;50.900;6.234;2022-11-20T20:49:06;8.20;99.90
15152;DHT22;7676;50.900;6.234;2022-11-20T20:54:08;8.20;99.90
15152;DHT22;7676;50.900;6.234;2022-11-20T20:59:13;8.10;99.90
15152;DHT22;7676;50.900;6.234;2022-11-20T21:04:15;8.00;99.90
15152;DHT22;7676;50.900;6.234;2022-11-20T21:09:18;8.10;99.90
15152;DHT22;7676;50.900;6.234;2022-11-20T21:14:21;8.10;99.90
15152;DHT22;7676;50.900;6.234;2022-11-20T21:19:24;8.10;99.90
15152;DHT22;7676;50.900;6.234;2022-11-20T21:24:28;8.00;99.90
15152;DHT22;7676;50.900;6.234;2022-11-20T21:29:30;8.10;99.90
15152;DHT22;7676;50.900;6.234;2022-11-20T21:34:33;8.00;99.90
15152;DHT22;7676;50.900;6.234;2022-11-20T21:39:35;8.10;99.90
15152;DHT22;7676;50.900;6.234;2022-11-20T21:44:51;8.20;99.90
15152;DHT22;7676;50.900;6.234;2022-11-20T21:49:53;8.30;99.90
15152;DHT22;7676;50.900;6.234;2022-11-20T21:54:56;8.30;99.90
15152;DHT22;7676;50.900;6.234;2022-11-20T21:59:58;8.40;99.90
15152;DHT22;7676;50.900;6.234;2022-11-20T22:05:01;8.30;99.90
15152;DHT22;7676;50.900;6.234;2022-11-20T22:10:06;8.30;99.90
15152;DHT22;7676;50.900;6.234;2022-11-20T22:15:18;8.30;99.90
15152;DHT22;7676;50.900;6.234;2022-11-20T22:20:44;8.30;99.90
15152;DHT22;7676;50.900;6.234;2022-11-20T22:25:46;8.20;99.90
15152;DHT22;7676;50.900;6.234;2022-11-20T22:30:49;8.10;99.90
15152;DHT22;7676;50.900;6.234;2022-11-20T22:35:51;8.10;99.90
15152;DHT22;7676;50.900;6.234;2022-11-20T22:40:59;8.30;99.90
15152;DHT22;7676;50.900;6.234;2022-11-20T22:46:13;8.40;99.90
15152;DHT22;7676;50.900;6.234;2022-11-20T22:51:17;8.30;99.90
15152;DHT22;7676;50.900;6.234;2022-11-20T22:56:21;8.20;99.90
15152;DHT22;7676;50.900;6.234;2022-11-20T23:01:31;8.20;99.90
15152;DHT22;7676;50.900;6.234;2022-11-20T23:06:34;8.30;99.90
15152;DHT22;7676;50.900;6.234;2022-11-20T23:11:37;8.40;99.90
15152;DHT22;7676;50.900;6.234;2022-11-20T23:16:40;8.30;99.90
15152;DHT22;7676;50.900;6.234;2022-11-20T23:21:43;8.30;99.90
15152;DHT22;7676;50.900;6.234;2022-11-20T23:26:45;8.30;99.90
15152;DHT22;7676;50.900;6.234;2022-11-20T23:31:49;8.30;99.90
15152;DHT22;7676;50.900;6.234;2022-11-20T23:36:51;8.20;99.90
15152;DHT22;7676;50.900;6.234;2022-11-20T23:41:53;8.30;99.90
15152;DHT22;7676;50.900;6.234;2022-11-20T23:46:56;8.40;99.90
15152;DHT22;7676;50.900;6.234;2022-11-20T23:51:58;8.50;99.90
15152;DHT22;7676;50.900;6.234;2022-11-20T23:57:00;8.40;99.90
